sensor_id;sensor_type;location;lat;lon;timestamp;temperature;humidity
44579;DHT22;37422;51.402;0.016;2022-12-20T00:01:49;12.50;99.90
44579;DHT22;37422;51.402;0.016;2022-12-20T00:04:17;12.50;99.90
44579;DHT22;37422;51.402;0.016;2022-12-20T00:06:45;12.50;99.90
44579;DHT22;37422;51.402;0.016;2022-12-20T00:09:12;12.50;99.90
44579;DHT22;37422;51.402;0.016;2022-12-20T00:11:40;12.50;99.90
44579;DHT22;37422;51.402;0.016;2022-12-20T00:14:09;12.50;99.90
44579;DHT22;37422;51.402;0.016;2022-12-20T00:16:37;12.50;99.90
44579;DHT22;37422;51.402;0.016;2022-12-20T00:19:05;12.50;99.90
44579;DHT22;37422;51.402;0.016;2022-12-20T00:21:34;12.50;99.90
44579;DHT22;37422;51.402;0.016;2022-12-20T00:24:03;12.50;99.90
44579;DHT22;37422;51.402;0.016;2022-12-20T00:26:33;12.50;99.90
44579;DHT22;37422;51.402;0.016;2022-12-20T00:29:02;12.40;99.90
44579;DHT22;37422;51.402;0.016;2022-12-20T00:31:31;12.40;99.90
44579;DHT22;37422;51.402;0.016;2022-12-20T00:33:59;12.40;99.90
44579;DHT22;37422;51.402;0.016;2022-12-20T00:36:30;12.40;99.90
44579;DHT22;37422;51.402;0.016;2022-12-20T00:38:59;12.40;99.90
44579;DHT22;37422;51.402;0.016;2022-12-20T00:41:30;12.40;99.90
44579;DHT22;37422;51.402;0.016;2022-12-20T00:43:58;12.40;99.90
44579;DHT22;37422;51.402;0.016;2022-12-20T00:46:27;12.40;99.90
44579;DHT22;37422;51.402;0.016;2022-12-20T00:48:55;12.40;99.90
44579;DHT22;37422;51.402;0.016;2022-12-20T00:51:26;12.40;99.90
44579;DHT22;37422;51.402;0.016;2022-12-20T00:53:54;12.40;99.90
44579;DHT22;37422;51.402;0.016;2022-12-20T00:56:22;12.40;99.90
44579;DHT22;37422;51.402;0.016;2022-12-20T00:58:52;12.40;99.90
44579;DHT22;37422;51.402;0.016;2022-12-20T01:01:24;12.40;99.90
44579;DHT22;37422;51.402;0.016;2022-12-20T01:03:52;12.40;99.90
44579;DHT22;37422;51.402;0.016;2022-12-20T01:06:22;12.40;99.90
44579;DHT22;37422;51.402;0.016;2022-12-20T01:08:52;12.50;99.90
44579;DHT22;37422;51.402;0.016;2022-12-20T01:11:25;12.50;99.90
44579;DHT22;37422;51.402;0.016;2022-12-20T01:13:56;12.60;99.90
44579;DHT22;37422;51.402;0.016;2022-12-20T01:16:26;12.60;99.90
44579;DHT22;37422;51.402;0.016;2022-12-20T01:18:54;12.60;99.90
44579;DHT22;37422;51.402;0.016;2022-12-20T01:21:25;12.60;99.90
44579;DHT22;37422;51.402;0.016;2022-12-20T01:23:54;12.60;99.90
44579;DHT22;37422;51.402;0.016;2022-12-20T01:26:24;12.50;99.90
44579;DHT22;37422;51.402;0.016;2022-12-20T01:28:55;12.50;99.90
44579;DHT22;37422;51.402;0.016;2022-12-20T01:31:23;12.50;99.90
44579;DHT22;37422;51.402;0.016;2022-12-20T01:33:51;12.60;99.90
44579;DHT22;37422;51.402;0.016;2022-12-20T01:36:22;12.60;99.90
44579;DHT22;37422;51.402;0.016;2022-12-20T01:41:25;12.60;99.90
44579;DHT22;37422;51.402;0.016;2022-12-20T01:43:54;12.60;99.90
44579;DHT22;37422;51.402;0.016;2022-12-20T01:46:25;12.60;99.90
44579;DHT22;37422;51.402;0.016;2022-12-20T01:49:03;12.60;99.90
44579;DHT22;37422;51.402;0.016;2022-12-20T01:51:36;12.60;99.90
44579;DHT22;37422;51.402;0.016;2022-12-20T01:54:16;12.60;99.90
44579;DHT22;37422;51.402;0.016;2022-12-20T01:56:50;12.60;99.90
44579;DHT22;37422;51.402;0.016;2022-12-20T01:59:22;12.60;99.90
44579;DHT22;37422;51.402;0.016;2022-12-20T02:01:50;12.60;99.90
44579;DHT22;37422;51.402;0.016;2022-12-20T02:04:18;12.70;99.90
44579;DHT22;37422;51.402;0.016;2022-12-20T02:06:48;12.70;99.90
44579;DHT22;37422;51.402;0.016;2022-12-20T02:09:16;12.70;99.90
44579;DHT22;37422;51.402;0.016;2022-12-20T02:12:09;12.70;99.90
44579;DHT22;37422;51.402;0.016;2022-12-20T02:14:49;12.70;99.90
44579;DHT22;37422;51.402;0.016;2022-12-20T02:17:44;12.70;99.90
44579;DHT22;37422;51.402;0.016;2022-12-20T02:23:39;12.70;99.90
44579;DHT22;37422;51.402;0.016;2022-12-20T02:29:17;12.70;99.90
44579;DHT22;37422;51.402;0.016;2022-12-20T02:32:00;12.70;99.90
44579;DHT22;37422;51.402;0.016;2022-12-20T02:34:32;12.70;99.90
44579;DHT22;37422;51.402;0.016;2022-12-20T02:37:01;12.80;99.90
44579;DHT22;37422;51.402;0.016;2022-12-20T02:39:33;12.80;99.90
44579;DHT22;37422;51.402;0.016;2022-12-20T02:42:08;12.80;99.90
44579;DHT22;37422;51.402;0.016;2022-12-20T02:45:06;12.80;99.90
44579;DHT22;37422;51.402;0.016;2022-12-20T02:47:54;12.80;99.90
44579;DHT22;37422;51.402;0.016;2022-12-20T02:50:42;12.70;99.90
44579;DHT22;37422;51.402;0.016;2022-12-20T02:53:12;12.70;99.90
44579;DHT22;37422;51.402;0.016;2022-12-20T02:55:58;12.70;99.90
44579;DHT22;37422;51.402;0.016;2022-12-20T02:58:55;12.70;99.90
44579;DHT22;37422;51.402;0.016;2022-12-20T03:01:28;12.60;99.90
44579;DHT22;37422;51.402;0.016;2022-12-20T03:03:58;12.60;99.90
44579;DHT22;37422;51.402;0.016;2022-12-20T03:06:26;12.60;99.90
44579;DHT22;37422;51.402;0.016;2022-12-20T03:08:54;12.60;99.90
44579;DHT22;37422;51.402;0.016;2022-12-20T03:11:26;12.60;99.90
44579;DHT22;37422;51.402;0.016;2022-12-20T03:13:57;12.60;99.90
44579;DHT22;37422;51.402;0.016;2022-12-20T03:16:25;12.60;99.90
44579;DHT22;37422;51.402;0.016;2022-12-20T03:18:53;12.60;99.90
44579;DHT22;37422;51.402;0.016;2022-12-20T03:21:21;12.60;99.90
44579;DHT22;37422;51.402;0.016;2022-12-20T03:23:49;12.60;99.90
44579;DHT22;37422;51.402;0.016;2022-12-20T03:26:17;12.50;99.90
44579;DHT22;37422;51.402;0.016;2022-12-20T03:28:50;12.50;99.90
44579;DHT22;37422;51.402;0.016;2022-12-20T03:31:20;12.50;99.90
44579;DHT22;37422;51.402;0.016;2022-12-20T03:33:52;12.60;99.90
44579;DHT22;37422;51.402;0.016;2022-12-20T03:36:22;12.50;99.90
44579;DHT22;37422;51.402;0.016;2022-12-20T03:38:58;12.50;99.90
44579;DHT22;37422;51.402;0.016;2022-12-20T03:41:29;12.50;99.90
44579;DHT22;37422;51.402;0.016;2022-12-20T03:43:59;12.50;99.90
44579;DHT22;37422;51.402;0.016;2022-12-20T03:46:28;12.50;99.90
44579;DHT22;37422;51.402;0.016;2022-12-20T03:49:00;12.50;99.90
44579;DHT22;37422;51.402;0.016;2022-12-20T03:51:34;12.50;99.90
44579;DHT22;37422;51.402;0.016;2022-12-20T03:54:02;12.50;99.90
44579;DHT22;37422;51.402;0.016;2022-12-20T03:56:55;12.50;99.90
44579;DHT22;37422;51.402;0.016;2022-12-20T03:59:24;12.40;99.90
44579;DHT22;37422;51.402;0.016;2022-12-20T04:01:55;12.50;99.90
44579;DHT22;37422;51.402;0.016;2022-12-20T04:04:28;12.50;99.90
44579;DHT22;37422;51.402;0.016;2022-12-20T04:07:00;12.50;99.90
44579;DHT22;37422;51.402;0.016;2022-12-20T04:09:30;12.50;99.90
44579;DHT22;37422;51.402;0.016;2022-12-20T04:12:16;12.50;99.90
44579;DHT22;37422;51.402;0.016;2022-12-20T04:14:53;12.60;99.90
44579;DHT22;37422;51.402;0.016;2022-12-20T04:17:25;12.60;99.90
44579;DHT22;37422;51.402;0.016;2022-12-20T04:19:53;12.50;99.90
44579;DHT22;37422;51.402;0.016;2022-12-20T04:22:21;12.50;99.90
44579;DHT22;37422;51.402;0.016;2022-12-20T04:24:59;12.50;99.90
44579;DHT22;37422;51.402;0.016;2022-12-20T04:27:32;12.50;99.90
44579;DHT22;37422;51.402;0.016;2022-12-20T04:30:05;12.40;99.90
44579;DHT22;37422;51.402;0.016;2022-12-20T04:32:36;12.40;99.90
44579;DHT22;37422;51.402;0.016;2022-12-20T04:35:04;12.30;99.90
44579;DHT22;37422;51.402;0.016;2022-12-20T04:37:38;12.40;99.90
44579;DHT22;37422;51.402;0.016;2022-12-20T04:40:06;12.30;99.90
44579;DHT22;37422;51.402;0.016;2022-12-20T04:42:46;12.30;99.90
44579;DHT22;37422;51.402;0.016;2022-12-20T04:45:15;12.20;99.90
44579;DHT22;37422;51.402;0.016;2022-12-20T04:47:43;12.30;99.90
44579;DHT22;37422;51.402;0.016;2022-12-20T04:50:16;12.30;99.90
44579;DHT22;37422;51.402;0.016;2022-12-20T04:52:46;12.30;99.90
44579;DHT22;37422;51.402;0.016;2022-12-20T04:55:37;12.30;99.90
44579;DHT22;37422;51.402;0.016;2022-12-20T04:58:06;12.30;99.90
44579;DHT22;37422;51.402;0.016;2022-12-20T05:00:37;12.30;99.90
44579;DHT22;37422;51.402;0.016;2022-12-20T05:03:19;12.30;99.90
44579;DHT22;37422;51.402;0.016;2022-12-20T05:05:47;12.30;99.90
44579;DHT22;37422;51.402;0.016;2022-12-20T05:08:15;12.40;99.90
44579;DHT22;37422;51.402;0.016;2022-12-20T05:10:44;12.40;99.90
44579;DHT22;37422;51.402;0.016;2022-12-20T05:13:12;12.40;99.90
44579;DHT22;37422;51.402;0.016;2022-12-20T05:15:43;12.40;99.90
44579;DHT22;37422;51.402;0.016;2022-12-20T05:18:12;12.40;99.90
44579;DHT22;37422;51.402;0.016;2022-12-20T05:20:48;12.40;99.90
44579;DHT22;37422;51.402;0.016;2022-12-20T05:23:37;12.40;99.90
44579;DHT22;37422;51.402;0.016;2022-12-20T05:26:28;12.40;99.90
44579;DHT22;37422;51.402;0.016;2022-12-20T05:28:56;12.40;99.90
44579;DHT22;37422;51.402;0.016;2022-12-20T05:31:27;12.40;99.90
44579;DHT22;37422;51.402;0.016;2022-12-20T05:33:57;12.40;99.90
44579;DHT22;37422;51.402;0.016;2022-12-20T05:36:29;12.30;99.90
44579;DHT22;37422;51.402;0.016;2022-12-20T05:38:58;12.30;99.90
44579;DHT22;37422;51.402;0.016;2022-12-20T05:41:32;12.30;99.90
44579;DHT22;37422;51.402;0.016;2022-12-20T05:44:01;12.30;99.90
44579;DHT22;37422;51.402;0.016;2022-12-20T05:46:32;12.30;99.90
44579;DHT22;37422;51.402;0.016;2022-12-20T05:49:04;12.30;99.90
44579;DHT22;37422;51.402;0.016;2022-12-20T05:51:32;12.30;99.90
44579;DHT22;37422;51.402;0.016;2022-12-20T05:54:16;12.30;99.90
44579;DHT22;37422;51.402;0.016;2022-12-20T05:56:53;12.40;99.90
44579;DHT22;37422;51.402;0.016;2022-12-20T05:59:26;12.40;99.90
44579;DHT22;37422;51.402;0.016;2022-12-20T06:01:54;12.40;99.90
44579;DHT22;37422;51.402;0.016;2022-12-20T06:04:23;12.40;99.90
44579;DHT22;37422;51.402;0.016;2022-12-20T06:06:52;12.40;99.90
44579;DHT22;37422;51.402;0.016;2022-12-20T06:09:19;12.40;99.90
44579;DHT22;37422;51.402;0.016;2022-12-20T06:12:03;12.40;99.90
44579;DHT22;37422;51.402;0.016;2022-12-20T06:14:33;12.30;99.90
44579;DHT22;37422;51.402;0.016;2022-12-20T06:17:01;12.40;99.90
44579;DHT22;37422;51.402;0.016;2022-12-20T06:19:31;12.40;99.90
44579;DHT22;37422;51.402;0.016;2022-12-20T06:21:59;12.40;99.90
44579;DHT22;37422;51.402;0.016;2022-12-20T06:24:47;12.40;99.90
44579;DHT22;37422;51.402;0.016;2022-12-20T06:27:19;12.40;99.90
44579;DHT22;37422;51.402;0.016;2022-12-20T06:29:57;12.40;99.90
44579;DHT22;37422;51.402;0.016;2022-12-20T06:32:36;12.40;99.90
44579;DHT22;37422;51.402;0.016;2022-12-20T06:35:16;12.40;99.90
44579;DHT22;37422;51.402;0.016;2022-12-20T06:37:48;12.40;99.90
44579;DHT22;37422;51.402;0.016;2022-12-20T06:40:35;12.40;99.90
44579;DHT22;37422;51.402;0.016;2022-12-20T06:43:30;12.50;99.90
44579;DHT22;37422;51.402;0.016;2022-12-20T06:46:01;12.40;99.90
44579;DHT22;37422;51.402;0.016;2022-12-20T06:48:45;12.40;99.90
44579;DHT22;37422;51.402;0.016;2022-12-20T06:51:45;12.40;99.90
44579;DHT22;37422;51.402;0.016;2022-12-20T06:54:52;12.40;99.90
44579;DHT22;37422;51.402;0.016;2022-12-20T06:57:34;12.40;99.90
44579;DHT22;37422;51.402;0.016;2022-12-20T07:00:08;12.30;99.90
44579;DHT22;37422;51.402;0.016;2022-12-20T07:03:01;12.30;99.90
44579;DHT22;37422;51.402;0.016;2022-12-20T07:05:58;12.40;99.90
44579;DHT22;37422;51.402;0.016;2022-12-20T07:08:42;12.40;99.90
44579;DHT22;37422;51.402;0.016;2022-12-20T07:11:10;12.30;99.90
44579;DHT22;37422;51.402;0.016;2022-12-20T07:13:38;12.30;99.90
44579;DHT22;37422;51.402;0.016;2022-12-20T07:16:09;12.30;99.90
44579;DHT22;37422;51.402;0.016;2022-12-20T07:18:41;12.30;99.90
44579;DHT22;37422;51.402;0.016;2022-12-20T07:21:12;12.20;99.90
44579;DHT22;37422;51.402;0.016;2022-12-20T07:24:13;12.10;99.90
44579;DHT22;37422;51.402;0.016;2022-12-20T07:27:15;12.00;99.90
44579;DHT22;37422;51.402;0.016;2022-12-20T07:29:48;11.80;99.90
44579;DHT22;37422;51.402;0.016;2022-12-20T07:32:35;11.70;99.90
44579;DHT22;37422;51.402;0.016;2022-12-20T07:35:41;11.60;99.90
44579;DHT22;37422;51.402;0.016;2022-12-20T07:38:23;11.30;99.90
44579;DHT22;37422;51.402;0.016;2022-12-20T07:41:20;11.50;99.90
44579;DHT22;37422;51.402;0.016;2022-12-20T07:44:22;11.40;99.90
44579;DHT22;37422;51.402;0.016;2022-12-20T07:46:51;11.30;99.90
44579;DHT22;37422;51.402;0.016;2022-12-20T07:49:31;11.30;99.90
44579;DHT22;37422;51.402;0.016;2022-12-20T07:52:18;11.30;99.90
44579;DHT22;37422;51.402;0.016;2022-12-20T07:55:54;11.40;99.90
44579;DHT22;37422;51.402;0.016;2022-12-20T07:58:41;11.10;99.90
44579;DHT22;37422;51.402;0.016;2022-12-20T08:02:05;11.10;99.90
44579;DHT22;37422;51.402;0.016;2022-12-20T08:04:35;11.00;99.90
44579;DHT22;37422;51.402;0.016;2022-12-20T08:07:03;10.90;99.90
44579;DHT22;37422;51.402;0.016;2022-12-20T08:09:46;10.80;99.90
44579;DHT22;37422;51.402;0.016;2022-12-20T08:17:41;10.80;99.90
44579;DHT22;37422;51.402;0.016;2022-12-20T08:20:11;10.80;99.90
44579;DHT22;37422;51.402;0.016;2022-12-20T08:22:42;10.70;99.90
44579;DHT22;37422;51.402;0.016;2022-12-20T08:25:10;10.70;99.90
44579;DHT22;37422;51.402;0.016;2022-12-20T08:27:43;10.60;99.90
44579;DHT22;37422;51.402;0.016;2022-12-20T08:30:19;10.50;99.90
44579;DHT22;37422;51.402;0.016;2022-12-20T08:32:49;10.50;99.90
44579;DHT22;37422;51.402;0.016;2022-12-20T08:35:18;10.30;99.90
44579;DHT22;37422;51.402;0.016;2022-12-20T08:50:16;10.30;99.90
44579;DHT22;37422;51.402;0.016;2022-12-20T08:52:47;9.80;99.90
44579;DHT22;37422;51.402;0.016;2022-12-20T08:55:27;10.10;99.90
44579;DHT22;37422;51.402;0.016;2022-12-20T08:58:02;10.00;99.90
44579;DHT22;37422;51.402;0.016;2022-12-20T09:00:41;10.00;99.90
44579;DHT22;37422;51.402;0.016;2022-12-20T09:03:20;9.90;99.90
44579;DHT22;37422;51.402;0.016;2022-12-20T09:06:38;9.90;99.90
44579;DHT22;37422;51.402;0.016;2022-12-20T09:12:50;9.90;99.90
44579;DHT22;37422;51.402;0.016;2022-12-20T09:20:07;9.90;99.90
44579;DHT22;37422;51.402;0.016;2022-12-20T09:22:36;9.90;99.90
44579;DHT22;37422;51.402;0.016;2022-12-20T09:29:39;9.90;99.90
44579;DHT22;37422;51.402;0.016;2022-12-20T09:32:36;9.80;99.90
44579;DHT22;37422;51.402;0.016;2022-12-20T09:35:05;10.00;99.90
44579;DHT22;37422;51.402;0.016;2022-12-20T09:41:53;9.80;99.90
44579;DHT22;37422;51.402;0.016;2022-12-20T09:56:27;10.00;99.90
44579;DHT22;37422;51.402;0.016;2022-12-20T09:59:40;10.00;99.90
44579;DHT22;37422;51.402;0.016;2022-12-20T10:02:40;10.00;99.90
44579;DHT22;37422;51.402;0.016;2022-12-20T10:05:52;10.00;99.90
44579;DHT22;37422;51.402;0.016;2022-12-20T10:08:46;9.90;99.90
44579;DHT22;37422;51.402;0.016;2022-12-20T10:11:48;9.90;99.90
44579;DHT22;37422;51.402;0.016;2022-12-20T10:14:31;9.80;99.90
44579;DHT22;37422;51.402;0.016;2022-12-20T10:24:02;10.00;99.90
44579;DHT22;37422;51.402;0.016;2022-12-20T10:26:39;10.20;99.90
44579;DHT22;37422;51.402;0.016;2022-12-20T10:29:24;10.40;99.90
44579;DHT22;37422;51.402;0.016;2022-12-20T10:32:12;10.50;99.90
44579;DHT22;37422;51.402;0.016;2022-12-20T10:34:54;10.60;99.90
44579;DHT22;37422;51.402;0.016;2022-12-20T10:37:38;10.80;99.90
44579;DHT22;37422;51.402;0.016;2022-12-20T10:40:35;11.00;99.90
44579;DHT22;37422;51.402;0.016;2022-12-20T10:43:23;11.30;99.90
44579;DHT22;37422;51.402;0.016;2022-12-20T10:46:01;11.60;99.90
44579;DHT22;37422;51.402;0.016;2022-12-20T10:48:36;11.90;99.90
44579;DHT22;37422;51.402;0.016;2022-12-20T10:54:46;12.50;99.90
44579;DHT22;37422;51.402;0.016;2022-12-20T10:57:52;13.10;99.90
44579;DHT22;37422;51.402;0.016;2022-12-20T11:01:35;13.70;99.90
44579;DHT22;37422;51.402;0.016;2022-12-20T11:12:21;16.00;99.90
44579;DHT22;37422;51.402;0.016;2022-12-20T11:15:07;17.00;99.90
44579;DHT22;37422;51.402;0.016;2022-12-20T11:21:11;17.90;99.90
44579;DHT22;37422;51.402;0.016;2022-12-20T11:24:04;18.20;99.90
44579;DHT22;37422;51.402;0.016;2022-12-20T11:33:06;19.20;99.90
44579;DHT22;37422;51.402;0.016;2022-12-20T11:39:11;19.60;99.90
44579;DHT22;37422;51.402;0.016;2022-12-20T11:42:15;19.80;99.90
44579;DHT22;37422;51.402;0.016;2022-12-20T11:48:16;19.90;99.90
44579;DHT22;37422;51.402;0.016;2022-12-20T11:51:26;20.00;99.90
44579;DHT22;37422;51.402;0.016;2022-12-20T11:57:20;20.20;99.90
44579;DHT22;37422;51.402;0.016;2022-12-20T12:00:17;20.10;99.90
44579;DHT22;37422;51.402;0.016;2022-12-20T12:06:27;20.00;98.00
44579;DHT22;37422;51.402;0.016;2022-12-20T12:12:20;20.00;99.90
44579;DHT22;37422;51.402;0.016;2022-12-20T12:15:00;20.10;99.90
44579;DHT22;37422;51.402;0.016;2022-12-20T12:26:34;20.30;99.90
44579;DHT22;37422;51.402;0.016;2022-12-20T12:31:56;20.20;99.90
44579;DHT22;37422;51.402;0.016;2022-12-20T12:37:34;19.90;99.90
44579;DHT22;37422;51.402;0.016;2022-12-20T12:47:14;19.40;99.90
44579;DHT22;37422;51.402;0.016;2022-12-20T12:49:48;19.40;99.90
44579;DHT22;37422;51.402;0.016;2022-12-20T12:55:04;18.90;99.90
44579;DHT22;37422;51.402;0.016;2022-12-20T12:57:56;18.70;99.90
44579;DHT22;37422;51.402;0.016;2022-12-20T13:00:49;18.60;99.90
44579;DHT22;37422;51.402;0.016;2022-12-20T13:09:35;17.30;99.90
44579;DHT22;37422;51.402;0.016;2022-12-20T13:18:33;14.70;99.90
44579;DHT22;37422;51.402;0.016;2022-12-20T13:20:42;14.30;99.90
44579;DHT22;37422;51.402;0.016;2022-12-20T13:23:14;13.70;99.90
44579;DHT22;37422;51.402;0.016;2022-12-20T13:25:46;13.30;99.90
44579;DHT22;37422;51.402;0.016;2022-12-20T13:41:43;12.00;99.90
44579;DHT22;37422;51.402;0.016;2022-12-20T13:44:35;11.80;99.90
44579;DHT22;37422;51.402;0.016;2022-12-20T13:47:30;11.70;99.90
44579;DHT22;37422;51.402;0.016;2022-12-20T13:50:11;11.60;99.90
44579;DHT22;37422;51.402;0.016;2022-12-20T13:52:50;11.50;99.90
44579;DHT22;37422;51.402;0.016;2022-12-20T13:55:36;11.50;99.90
44579;DHT22;37422;51.402;0.016;2022-12-20T13:58:27;11.40;99.90
44579;DHT22;37422;51.402;0.016;2022-12-20T14:01:04;11.30;99.90
44579;DHT22;37422;51.402;0.016;2022-12-20T14:03:41;11.30;99.90
44579;DHT22;37422;51.402;0.016;2022-12-20T14:06:10;11.20;99.90
44579;DHT22;37422;51.402;0.016;2022-12-20T14:08:50;11.20;99.90
44579;DHT22;37422;51.402;0.016;2022-12-20T14:11:24;11.10;99.90
44579;DHT22;37422;51.402;0.016;2022-12-20T14:14:02;11.10;99.90
44579;DHT22;37422;51.402;0.016;2022-12-20T14:16:33;11.00;99.90
44579;DHT22;37422;51.402;0.016;2022-12-20T14:19:04;11.00;99.90
44579;DHT22;37422;51.402;0.016;2022-12-20T14:21:35;10.90;99.90
44579;DHT22;37422;51.402;0.016;2022-12-20T14:24:04;10.90;99.90
44579;DHT22;37422;51.402;0.016;2022-12-20T14:26:39;10.80;99.90
44579;DHT22;37422;51.402;0.016;2022-12-20T14:29:11;10.80;99.90
44579;DHT22;37422;51.402;0.016;2022-12-20T14:31:44;10.80;99.90
44579;DHT22;37422;51.402;0.016;2022-12-20T14:34:24;10.70;99.90
44579;DHT22;37422;51.402;0.016;2022-12-20T14:42:38;10.60;99.90
44579;DHT22;37422;51.402;0.016;2022-12-20T14:45:19;10.60;99.90
44579;DHT22;37422;51.402;0.016;2022-12-20T14:50:29;10.50;99.90
44579;DHT22;37422;51.402;0.016;2022-12-20T14:53:22;10.40;99.90
44579;DHT22;37422;51.402;0.016;2022-12-20T15:27:51;9.60;99.90
44579;DHT22;37422;51.402;0.016;2022-12-20T15:31:23;9.60;99.90
44579;DHT22;37422;51.402;0.016;2022-12-20T15:35:31;9.50;99.90
44579;DHT22;37422;51.402;0.016;2022-12-20T16:02:47;8.70;99.90
44579;DHT22;37422;51.402;0.016;2022-12-20T16:07:07;8.50;99.90
44579;DHT22;37422;51.402;0.016;2022-12-20T16:14:49;8.20;99.90
44579;DHT22;37422;51.402;0.016;2022-12-20T16:17:53;8.10;99.90
44579;DHT22;37422;51.402;0.016;2022-12-20T16:22:28;8.00;99.90
44579;DHT22;37422;51.402;0.016;2022-12-20T16:30:05;7.60;99.90
44579;DHT22;37422;51.402;0.016;2022-12-20T16:38:43;7.50;99.90
44579;DHT22;37422;51.402;0.016;2022-12-20T16:46:37;7.40;99.90
44579;DHT22;37422;51.402;0.016;2022-12-20T17:02:28;7.30;99.90
44579;DHT22;37422;51.402;0.016;2022-12-20T17:04:59;7.20;99.90
44579;DHT22;37422;51.402;0.016;2022-12-20T17:07:30;7.10;99.90
44579;DHT22;37422;51.402;0.016;2022-12-20T17:10:07;7.10;99.90
44579;DHT22;37422;51.402;0.016;2022-12-20T17:12:42;7.10;99.90
44579;DHT22;37422;51.402;0.016;2022-12-20T17:15:24;7.00;99.90
44579;DHT22;37422;51.402;0.016;2022-12-20T17:17:53;7.00;99.90
44579;DHT22;37422;51.402;0.016;2022-12-20T17:20:22;6.90;99.90
44579;DHT22;37422;51.402;0.016;2022-12-20T17:22:53;6.80;99.90
44579;DHT22;37422;51.402;0.016;2022-12-20T17:25:30;6.80;99.90
44579;DHT22;37422;51.402;0.016;2022-12-20T17:27:59;6.80;99.90
44579;DHT22;37422;51.402;0.016;2022-12-20T17:30:27;6.70;99.90
44579;DHT22;37422;51.402;0.016;2022-12-20T17:32:55;6.60;99.90
44579;DHT22;37422;51.402;0.016;2022-12-20T17:35:26;6.60;99.90
44579;DHT22;37422;51.402;0.016;2022-12-20T17:37:55;6.50;99.90
44579;DHT22;37422;51.402;0.016;2022-12-20T17:40:28;6.50;99.90
44579;DHT22;37422;51.402;0.016;2022-12-20T17:42:56;6.40;99.90
44579;DHT22;37422;51.402;0.016;2022-12-20T17:45:28;6.40;99.90
44579;DHT22;37422;51.402;0.016;2022-12-20T17:47:57;6.50;99.90
44579;DHT22;37422;51.402;0.016;2022-12-20T17:50:25;6.50;99.90
44579;DHT22;37422;51.402;0.016;2022-12-20T17:52:54;6.60;99.90
44579;DHT22;37422;51.402;0.016;2022-12-20T17:55:25;6.60;99.90
44579;DHT22;37422;51.402;0.016;2022-12-20T17:57:55;6.60;99.90
44579;DHT22;37422;51.402;0.016;2022-12-20T18:00:25;6.60;99.90
44579;DHT22;37422;51.402;0.016;2022-12-20T18:03:05;6.60;99.90
44579;DHT22;37422;51.402;0.016;2022-12-20T18:05:33;6.60;99.90
44579;DHT22;37422;51.402;0.016;2022-12-20T18:08:01;6.50;99.90
44579;DHT22;37422;51.402;0.016;2022-12-20T18:10:30;6.50;99.90
44579;DHT22;37422;51.402;0.016;2022-12-20T18:13:01;6.50;99.90
44579;DHT22;37422;51.402;0.016;2022-12-20T18:15:32;6.50;99.90
44579;DHT22;37422;51.402;0.016;2022-12-20T18:18:00;6.50;99.90
44579;DHT22;37422;51.402;0.016;2022-12-20T18:20:32;6.40;99.90
44579;DHT22;37422;51.402;0.016;2022-12-20T18:23:00;6.40;99.90
44579;DHT22;37422;51.402;0.016;2022-12-20T18:25:30;6.30;99.90
44579;DHT22;37422;51.402;0.016;2022-12-20T18:27:58;6.30;99.90
44579;DHT22;37422;51.402;0.016;2022-12-20T18:30:26;6.20;99.90
44579;DHT22;37422;51.402;0.016;2022-12-20T18:32:54;6.10;99.90
44579;DHT22;37422;51.402;0.016;2022-12-20T18:35:22;6.10;99.90
44579;DHT22;37422;51.402;0.016;2022-12-20T18:37:51;6.00;99.90
44579;DHT22;37422;51.402;0.016;2022-12-20T18:40:19;6.00;99.90
44579;DHT22;37422;51.402;0.016;2022-12-20T18:42:50;6.00;99.90
44579;DHT22;37422;51.402;0.016;2022-12-20T18:45:17;5.90;99.90
44579;DHT22;37422;51.402;0.016;2022-12-20T18:47:55;5.80;99.90
44579;DHT22;37422;51.402;0.016;2022-12-20T18:50:30;5.90;99.90
44579;DHT22;37422;51.402;0.016;2022-12-20T18:53:01;5.70;99.90
44579;DHT22;37422;51.402;0.016;2022-12-20T18:56:09;5.70;99.90
44579;DHT22;37422;51.402;0.016;2022-12-20T18:59:45;5.60;99.90
44579;DHT22;37422;51.402;0.016;2022-12-20T19:02:53;5.60;99.90
44579;DHT22;37422;51.402;0.016;2022-12-20T19:05:41;5.50;99.90
44579;DHT22;37422;51.402;0.016;2022-12-20T19:11:30;5.50;99.90
44579;DHT22;37422;51.402;0.016;2022-12-20T19:14:08;5.40;99.90
44579;DHT22;37422;51.402;0.016;2022-12-20T19:16:44;5.40;99.90
44579;DHT22;37422;51.402;0.016;2022-12-20T19:19:22;5.40;99.90
44579;DHT22;37422;51.402;0.016;2022-12-20T19:22:06;5.40;99.90
44579;DHT22;37422;51.402;0.016;2022-12-20T19:24:45;5.40;99.90
44579;DHT22;37422;51.402;0.016;2022-12-20T19:27:17;5.40;99.90
44579;DHT22;37422;51.402;0.016;2022-12-20T19:29:47;5.40;99.90
44579;DHT22;37422;51.402;0.016;2022-12-20T19:32:17;5.40;99.90
44579;DHT22;37422;51.402;0.016;2022-12-20T19:34:47;5.40;99.90
44579;DHT22;37422;51.402;0.016;2022-12-20T19:37:18;5.40;99.90
44579;DHT22;37422;51.402;0.016;2022-12-20T19:40:23;5.40;99.90
44579;DHT22;37422;51.402;0.016;2022-12-20T19:54:13;5.30;99.90
44579;DHT22;37422;51.402;0.016;2022-12-20T19:56:49;5.30;99.90
44579;DHT22;37422;51.402;0.016;2022-12-20T19:59:27;5.20;99.90
44579;DHT22;37422;51.402;0.016;2022-12-20T20:02:01;5.30;99.90
44579;DHT22;37422;51.402;0.016;2022-12-20T20:04:30;5.30;99.90
44579;DHT22;37422;51.402;0.016;2022-12-20T20:07:08;5.30;99.90
44579;DHT22;37422;51.402;0.016;2022-12-20T20:09:50;5.40;99.90
44579;DHT22;37422;51.402;0.016;2022-12-20T20:12:24;5.40;99.90
44579;DHT22;37422;51.402;0.016;2022-12-20T20:19:16;5.40;99.90
44579;DHT22;37422;51.402;0.016;2022-12-20T20:21:52;5.40;99.90
44579;DHT22;37422;51.402;0.016;2022-12-20T20:24:22;5.40;99.90
44579;DHT22;37422;51.402;0.016;2022-12-20T20:26:55;5.40;99.90
44579;DHT22;37422;51.402;0.016;2022-12-20T20:29:23;5.40;99.90
44579;DHT22;37422;51.402;0.016;2022-12-20T20:31:53;5.40;99.90
44579;DHT22;37422;51.402;0.016;2022-12-20T20:34:23;5.30;99.90
44579;DHT22;37422;51.402;0.016;2022-12-20T20:36:52;5.30;99.90
44579;DHT22;37422;51.402;0.016;2022-12-20T20:39:19;5.30;99.90
44579;DHT22;37422;51.402;0.016;2022-12-20T20:41:47;5.30;99.90
44579;DHT22;37422;51.402;0.016;2022-12-20T20:44:15;5.30;99.90
44579;DHT22;37422;51.402;0.016;2022-12-20T20:46:43;5.30;99.90
44579;DHT22;37422;51.402;0.016;2022-12-20T20:49:11;5.20;99.90
44579;DHT22;37422;51.402;0.016;2022-12-20T20:51:39;5.20;99.90
44579;DHT22;37422;51.402;0.016;2022-12-20T20:54:06;5.20;99.90
44579;DHT22;37422;51.402;0.016;2022-12-20T20:56:34;5.10;99.90
44579;DHT22;37422;51.402;0.016;2022-12-20T20:59:02;5.10;99.90
44579;DHT22;37422;51.402;0.016;2022-12-20T21:01:37;5.10;99.90
44579;DHT22;37422;51.402;0.016;2022-12-20T21:04:07;5.10;99.90
44579;DHT22;37422;51.402;0.016;2022-12-20T21:06:36;5.10;99.90
44579;DHT22;37422;51.402;0.016;2022-12-20T21:09:08;5.00;99.90